DLH900 EDDF-EGLL
Flight info
| Callsign | DLH900 |
|---|---|
| Flight time | 1h 7m |
| Altitude | 38000 |
| Route | OBOKA3W/25C OBOKA Z29 TORNU DCT ABNED L980 LOGAN |
| Aircraft | A20N/M-SDE2E3FGHIRWXY/LB1 |
Departure
| Time | 2026-05-03 20:22 |
|---|---|
| Airport | Frankfurt Main Airport (EDDF) |
Arrival
| Time | 2026-05-03 21:30 |
|---|---|
| Airport | London Heathrow Airport (EGLL) |
| Time | Latitude | Longitude | Altitude | Speed | Heading |
|---|---|---|---|---|---|
| 2026-05-03 20:15 | 50.03590 | 8.58085 | 361 ft | 0 kts | 43° |
| 2026-05-03 20:15 | 50.03618 | 8.58100 | 360 ft | 13 kts | 7° |
| 2026-05-03 20:15 | 50.03698 | 8.58052 | 364 ft | 8 kts | 338° |
| 2026-05-03 20:15 | 50.03760 | 8.58016 | 364 ft | 11 kts | 340° |
| 2026-05-03 20:16 | 50.03837 | 8.57974 | 368 ft | 13 kts | 341° |
| 2026-05-03 20:16 | 50.03933 | 8.57923 | 368 ft | 15 kts | 340° |
| 2026-05-03 20:16 | 50.04035 | 8.57863 | 367 ft | 16 kts | 352° |
| 2026-05-03 20:16 | 50.04060 | 8.57882 | 369 ft | 13 kts | 39° |
| 2026-05-03 20:17 | 50.04109 | 8.58052 | 369 ft | 20 kts | 69° |
| 2026-05-03 20:17 | 50.04162 | 8.58275 | 369 ft | 24 kts | 70° |
| 2026-05-03 20:17 | 50.04218 | 8.58511 | 370 ft | 19 kts | 70° |
| 2026-05-03 20:17 | 50.04264 | 8.58614 | 369 ft | 9 kts | 30° |
| 2026-05-03 20:18 | 50.04337 | 8.58625 | 369 ft | 12 kts | 6° |
| 2026-05-03 20:18 | 50.04385 | 8.58633 | 370 ft | 0 kts | 8° |
| 2026-05-03 20:20 | 50.04389 | 8.58634 | 370 ft | 2 kts | 8° |
| 2026-05-03 20:20 | 50.04426 | 8.58642 | 370 ft | 9 kts | 8° |
| 2026-05-03 20:20 | 50.04486 | 8.58602 | 370 ft | 11 kts | 287° |
| 2026-05-03 20:21 | 50.04469 | 8.58516 | 373 ft | 0 kts | 251° |
| 2026-05-03 20:21 | 50.04468 | 8.58510 | 373 ft | 1 kts | 251° |
| 2026-05-03 20:22 | 50.04409 | 8.58273 | 371 ft | 58 kts | 249° |
| 2026-05-03 20:22 | 50.04185 | 8.57359 | 367 ft | 118 kts | 250° |
| 2026-05-03 20:22 | 50.03837 | 8.55937 | 392 ft | 159 kts | 247° |
| 2026-05-03 20:22 | 50.03489 | 8.54379 | 1091 ft | 150 kts | 251° |
| 2026-05-03 20:23 | 50.03158 | 8.52767 | 1606 ft | 160 kts | 250° |
| 2026-05-03 20:23 | 50.02705 | 8.51186 | 2187 ft | 165 kts | 239° |
| 2026-05-03 20:23 | 50.01980 | 8.49799 | 2785 ft | 168 kts | 227° |
| 2026-05-03 20:23 | 50.01014 | 8.48617 | 3106 ft | 186 kts | 212° |
| 2026-05-03 20:24 | 49.99753 | 8.47981 | 3555 ft | 197 kts | 195° |
| 2026-05-03 20:24 | 49.98388 | 8.47642 | 4158 ft | 198 kts | 194° |
| 2026-05-03 20:24 | 49.97040 | 8.47329 | 4863 ft | 194 kts | 193° |
| 2026-05-03 20:24 | 49.95720 | 8.46943 | 5432 ft | 192 kts | 200° |
| 2026-05-03 20:25 | 49.94424 | 8.46321 | 5835 ft | 203 kts | 200° |
| 2026-05-03 20:25 | 49.93012 | 8.45648 | 6010 ft | 222 kts | 200° |
| 2026-05-03 20:25 | 49.91627 | 8.44569 | 6524 ft | 223 kts | 219° |
| 2026-05-03 20:25 | 49.90589 | 8.42772 | 6926 ft | 226 kts | 237° |
| 2026-05-03 20:26 | 49.89777 | 8.40634 | 7468 ft | 231 kts | 237° |
| 2026-05-03 20:26 | 49.89003 | 8.38449 | 8411 ft | 233 kts | 245° |
| 2026-05-03 20:26 | 49.88609 | 8.35974 | 9336 ft | 242 kts | 262° |
| 2026-05-03 20:26 | 49.88685 | 8.33318 | 10200 ft | 254 kts | 270° |
| 2026-05-03 20:27 | 49.88847 | 8.30467 | 10635 ft | 277 kts | 271° |
| 2026-05-03 20:27 | 49.89219 | 8.27390 | 11003 ft | 305 kts | 283° |
| 2026-05-03 20:27 | 49.90116 | 8.24323 | 11358 ft | 332 kts | 298° |
| 2026-05-03 20:27 | 49.91541 | 8.21343 | 12163 ft | 340 kts | 304° |
| 2026-05-03 20:28 | 49.92974 | 8.18392 | 12721 ft | 343 kts | 303° |
| 2026-05-03 20:28 | 49.94505 | 8.15591 | 12985 ft | 348 kts | 311° |
| 2026-05-03 20:28 | 49.96329 | 8.13073 | 13763 ft | 352 kts | 317° |
| 2026-05-03 20:28 | 49.98200 | 8.10601 | 14608 ft | 354 kts | 316° |
| 2026-05-03 20:29 | 50.00079 | 8.08079 | 15321 ft | 360 kts | 315° |
| 2026-05-03 20:29 | 50.01980 | 8.05520 | 16053 ft | 364 kts | 315° |
| 2026-05-03 20:29 | 50.03920 | 8.02910 | 16792 ft | 369 kts | 315° |
| 2026-05-03 20:29 | 50.05875 | 8.00283 | 17503 ft | 374 kts | 315° |
| 2026-05-03 20:30 | 50.07856 | 7.97622 | 18211 ft | 379 kts | 315° |
| 2026-05-03 20:30 | 50.09868 | 7.94918 | 18850 ft | 383 kts | 314° |
| 2026-05-03 20:30 | 50.11898 | 7.92188 | 19495 ft | 387 kts | 314° |
| 2026-05-03 20:30 | 50.13924 | 7.89460 | 20128 ft | 391 kts | 314° |
| 2026-05-03 20:31 | 50.15989 | 7.86675 | 20744 ft | 395 kts | 314° |
| 2026-05-03 20:31 | 50.18082 | 7.83850 | 21349 ft | 399 kts | 314° |
| 2026-05-03 20:31 | 50.20191 | 7.81001 | 21954 ft | 403 kts | 313° |
| 2026-05-03 20:31 | 50.22326 | 7.78112 | 22563 ft | 407 kts | 313° |
| 2026-05-03 20:32 | 50.24539 | 7.75290 | 23154 ft | 415 kts | 319° |
| 2026-05-03 20:32 | 50.27012 | 7.72879 | 23699 ft | 425 kts | 327° |
| 2026-05-03 20:32 | 50.29719 | 7.70926 | 24209 ft | 431 kts | 332° |
| 2026-05-03 20:32 | 50.32488 | 7.69052 | 24709 ft | 434 kts | 331° |
| 2026-05-03 20:33 | 50.35266 | 7.67148 | 25193 ft | 437 kts | 331° |
| 2026-05-03 20:33 | 50.38066 | 7.65221 | 25676 ft | 441 kts | 331° |
| 2026-05-03 20:33 | 50.40883 | 7.63280 | 26138 ft | 444 kts | 331° |
| 2026-05-03 20:33 | 50.43716 | 7.61329 | 26618 ft | 447 kts | 331° |
| 2026-05-03 20:34 | 50.46535 | 7.59387 | 27068 ft | 450 kts | 331° |
| 2026-05-03 20:34 | 50.49419 | 7.57398 | 27504 ft | 453 kts | 331° |
| 2026-05-03 20:34 | 50.52309 | 7.55401 | 27939 ft | 455 kts | 331° |
| 2026-05-03 20:34 | 50.55194 | 7.53344 | 28360 ft | 456 kts | 328° |
| 2026-05-03 20:35 | 50.57921 | 7.50831 | 28782 ft | 454 kts | 321° |
| 2026-05-03 20:35 | 50.60568 | 7.48091 | 29160 ft | 457 kts | 322° |
| 2026-05-03 20:35 | 50.63242 | 7.45353 | 29560 ft | 459 kts | 322° |
| 2026-05-03 20:35 | 50.65926 | 7.42611 | 29937 ft | 462 kts | 322° |
| 2026-05-03 20:36 | 50.68627 | 7.39846 | 30302 ft | 464 kts | 322° |
| 2026-05-03 20:36 | 50.71316 | 7.37009 | 30639 ft | 463 kts | 317° |
| 2026-05-03 20:36 | 50.73699 | 7.33657 | 30979 ft | 458 kts | 308° |
| 2026-05-03 20:36 | 50.75669 | 7.29758 | 31360 ft | 452 kts | 298° |
| 2026-05-03 20:37 | 50.77211 | 7.25455 | 31794 ft | 446 kts | 291° |
| 2026-05-03 20:37 | 50.78615 | 7.21108 | 32238 ft | 446 kts | 292° |
| 2026-05-03 20:37 | 50.80042 | 7.16743 | 32673 ft | 445 kts | 292° |
| 2026-05-03 20:37 | 50.81457 | 7.12408 | 33085 ft | 444 kts | 292° |
| 2026-05-03 20:38 | 50.82872 | 7.08062 | 33512 ft | 443 kts | 292° |
| 2026-05-03 20:38 | 50.84278 | 7.03723 | 33905 ft | 442 kts | 292° |
| 2026-05-03 20:38 | 50.85672 | 6.99412 | 34251 ft | 441 kts | 292° |
| 2026-05-03 20:38 | 50.87045 | 6.95152 | 34564 ft | 441 kts | 292° |
| 2026-05-03 20:39 | 50.88461 | 6.90753 | 34905 ft | 440 kts | 292° |
| 2026-05-03 20:39 | 50.89847 | 6.86440 | 35193 ft | 439 kts | 292° |
| 2026-05-03 20:39 | 50.91229 | 6.82133 | 35497 ft | 438 kts | 292° |
| 2026-05-03 20:39 | 50.92606 | 6.77834 | 35799 ft | 438 kts | 292° |
| 2026-05-03 20:40 | 50.93963 | 6.73591 | 36083 ft | 437 kts | 292° |
| 2026-05-03 20:40 | 50.95340 | 6.69276 | 36358 ft | 436 kts | 292° |
| 2026-05-03 20:40 | 50.96709 | 6.64979 | 36652 ft | 436 kts | 292° |
| 2026-05-03 20:40 | 50.98071 | 6.60698 | 36917 ft | 435 kts | 292° |
| 2026-05-03 20:41 | 50.99436 | 6.56400 | 37170 ft | 435 kts | 292° |
| 2026-05-03 20:41 | 51.00793 | 6.52120 | 37406 ft | 435 kts | 292° |
| 2026-05-03 20:41 | 51.02153 | 6.47822 | 37644 ft | 435 kts | 292° |
| 2026-05-03 20:41 | 51.03510 | 6.43528 | 37867 ft | 434 kts | 292° |
| 2026-05-03 20:42 | 51.04865 | 6.39231 | 37963 ft | 435 kts | 292° |
| 2026-05-03 20:42 | 51.07531 | 6.30759 | 37964 ft | 433 kts | 292° |
| 2026-05-03 20:43 | 51.10249 | 6.22086 | 37965 ft | 434 kts | 292° |
| 2026-05-03 20:43 | 51.12912 | 6.13461 | 37960 ft | 433 kts | 290° |
| 2026-05-03 20:44 | 51.14899 | 6.04527 | 37963 ft | 429 kts | 281° |
| 2026-05-03 20:44 | 51.16377 | 5.95337 | 37963 ft | 429 kts | 281° |
| 2026-05-03 20:45 | 51.17888 | 5.86118 | 37961 ft | 430 kts | 282° |
| 2026-05-03 20:45 | 51.19977 | 5.77132 | 37959 ft | 435 kts | 289° |
| 2026-05-03 20:46 | 51.22336 | 5.68228 | 37951 ft | 435 kts | 289° |
| 2026-05-03 20:46 | 51.24676 | 5.59318 | 37948 ft | 435 kts | 288° |
| 2026-05-03 20:47 | 51.26998 | 5.50452 | 37947 ft | 436 kts | 288° |
| 2026-05-03 20:47 | 51.29332 | 5.41509 | 37945 ft | 436 kts | 288° |
| 2026-05-03 20:48 | 51.31657 | 5.32565 | 37947 ft | 436 kts | 288° |
| 2026-05-03 20:48 | 51.33972 | 5.23625 | 37946 ft | 436 kts | 288° |
| 2026-05-03 20:49 | 51.36283 | 5.14665 | 37940 ft | 436 kts | 288° |
| 2026-05-03 20:49 | 51.38572 | 5.05758 | 37941 ft | 436 kts | 288° |
| 2026-05-03 20:50 | 51.40895 | 4.96682 | 37934 ft | 436 kts | 288° |
| 2026-05-03 20:50 | 51.43193 | 4.87664 | 37935 ft | 436 kts | 288° |
| 2026-05-03 20:51 | 51.45466 | 4.78709 | 37934 ft | 436 kts | 288° |
| 2026-05-03 20:51 | 51.47743 | 4.69702 | 37935 ft | 436 kts | 288° |
| 2026-05-03 20:52 | 51.50027 | 4.60635 | 37929 ft | 437 kts | 288° |
| 2026-05-03 20:52 | 51.52293 | 4.51597 | 37931 ft | 437 kts | 288° |
| 2026-05-03 20:53 | 51.54557 | 4.42532 | 37934 ft | 437 kts | 288° |
| 2026-05-03 20:53 | 51.56798 | 4.33522 | 37934 ft | 437 kts | 287° |
| 2026-05-03 20:54 | 51.59049 | 4.24436 | 37931 ft | 437 kts | 287° |
| 2026-05-03 20:54 | 51.62419 | 4.10766 | 37923 ft | 438 kts | 287° |
| 2026-05-03 20:55 | 51.64654 | 4.01651 | 37917 ft | 438 kts | 287° |
| 2026-05-03 20:55 | 51.66881 | 3.92526 | 37911 ft | 438 kts | 287° |
| 2026-05-03 20:56 | 51.69110 | 3.83358 | 37915 ft | 438 kts | 287° |
| 2026-05-03 20:56 | 51.71329 | 3.74195 | 37920 ft | 439 kts | 287° |
| 2026-05-03 20:57 | 51.73543 | 3.65012 | 37907 ft | 439 kts | 287° |
| 2026-05-03 20:57 | 51.75373 | 3.57391 | 37913 ft | 439 kts | 287° |
| 2026-05-03 20:58 | 51.77578 | 3.48175 | 37918 ft | 439 kts | 287° |
| 2026-05-03 20:58 | 51.79771 | 3.38970 | 37921 ft | 439 kts | 287° |
| 2026-05-03 20:59 | 51.81956 | 3.29763 | 37917 ft | 439 kts | 287° |
| 2026-05-03 20:59 | 51.83786 | 3.20472 | 37918 ft | 434 kts | 277° |
| 2026-05-03 21:00 | 51.84544 | 3.12392 | 37908 ft | 434 kts | 279° |
| 2026-05-03 21:00 | 51.85910 | 3.06294 | 37768 ft | 437 kts | 291° |
| 2026-05-03 21:00 | 51.87229 | 3.01865 | 37298 ft | 436 kts | 292° |
| 2026-05-03 21:01 | 51.88562 | 2.97458 | 36694 ft | 435 kts | 292° |
| 2026-05-03 21:01 | 51.89898 | 2.93064 | 36134 ft | 433 kts | 292° |
| 2026-05-03 21:01 | 51.91228 | 2.88708 | 35961 ft | 434 kts | 292° |
| 2026-05-03 21:01 | 51.92578 | 2.84273 | 35934 ft | 441 kts | 292° |
| 2026-05-03 21:02 | 51.95263 | 2.75303 | 35915 ft | 439 kts | 288° |
| 2026-05-03 21:02 | 51.96119 | 2.70603 | 35915 ft | 432 kts | 275° |
| 2026-05-03 21:02 | 51.96303 | 2.65781 | 35914 ft | 427 kts | 263° |
| 2026-05-03 21:03 | 51.95818 | 2.61082 | 35915 ft | 423 kts | 250° |
| 2026-05-03 21:03 | 51.94686 | 2.56702 | 35910 ft | 419 kts | 238° |
| 2026-05-03 21:03 | 51.91164 | 2.49221 | 35914 ft | 418 kts | 230° |
| 2026-05-03 21:04 | 51.87598 | 2.41844 | 35912 ft | 418 kts | 231° |
| 2026-05-03 21:04 | 51.85838 | 2.38114 | 35799 ft | 416 kts | 231° |
| 2026-05-03 21:04 | 51.84093 | 2.34399 | 35302 ft | 417 kts | 231° |
| 2026-05-03 21:05 | 51.82329 | 2.30642 | 34541 ft | 420 kts | 231° |
| 2026-05-03 21:05 | 51.80584 | 2.26799 | 33580 ft | 426 kts | 236° |
| 2026-05-03 21:05 | 51.79198 | 2.22566 | 32346 ft | 428 kts | 245° |
| 2026-05-03 21:05 | 51.78297 | 2.17958 | 31113 ft | 436 kts | 255° |
| 2026-05-03 21:06 | 51.77885 | 2.13071 | 30018 ft | 439 kts | 260° |
| 2026-05-03 21:06 | 51.77609 | 2.08145 | 28561 ft | 440 kts | 261° |
| 2026-05-03 21:06 | 51.77331 | 2.03251 | 27409 ft | 436 kts | 261° |
| 2026-05-03 21:06 | 51.77048 | 1.98394 | 26599 ft | 429 kts | 261° |
| 2026-05-03 21:07 | 51.76771 | 1.93715 | 25680 ft | 421 kts | 261° |
| 2026-05-03 21:07 | 51.76494 | 1.89100 | 25212 ft | 403 kts | 261° |
| 2026-05-03 21:07 | 51.76227 | 1.84691 | 25020 ft | 390 kts | 261° |
| 2026-05-03 21:07 | 51.75952 | 1.80247 | 24922 ft | 395 kts | 261° |
| 2026-05-03 21:08 | 51.75681 | 1.75902 | 24914 ft | 395 kts | 261° |
| 2026-05-03 21:08 | 51.75405 | 1.71481 | 24911 ft | 395 kts | 261° |
| 2026-05-03 21:08 | 51.75129 | 1.67070 | 24913 ft | 395 kts | 261° |
| 2026-05-03 21:08 | 51.74852 | 1.62671 | 24913 ft | 394 kts | 261° |
| 2026-05-03 21:09 | 51.74573 | 1.58259 | 24888 ft | 393 kts | 261° |
| 2026-05-03 21:09 | 51.74294 | 1.53878 | 24533 ft | 393 kts | 261° |
| 2026-05-03 21:09 | 51.74011 | 1.49468 | 23910 ft | 395 kts | 262° |
| 2026-05-03 21:09 | 51.73732 | 1.45128 | 23735 ft | 382 kts | 262° |
| 2026-05-03 21:10 | 51.73464 | 1.40950 | 23606 ft | 367 kts | 261° |
| 2026-05-03 21:10 | 51.73204 | 1.36932 | 23478 ft | 353 kts | 261° |
| 2026-05-03 21:10 | 51.72954 | 1.33080 | 23308 ft | 336 kts | 261° |
| 2026-05-03 21:10 | 51.72714 | 1.29423 | 23048 ft | 324 kts | 261° |
| 2026-05-03 21:11 | 51.72472 | 1.25787 | 22365 ft | 328 kts | 261° |
| 2026-05-03 21:11 | 51.72228 | 1.22169 | 21851 ft | 327 kts | 261° |
| 2026-05-03 21:11 | 51.71984 | 1.18535 | 21382 ft | 325 kts | 261° |
| 2026-05-03 21:11 | 51.71742 | 1.14921 | 20913 ft | 324 kts | 261° |
| 2026-05-03 21:12 | 51.71499 | 1.11322 | 20458 ft | 322 kts | 261° |
| 2026-05-03 21:12 | 51.71256 | 1.07736 | 20018 ft | 320 kts | 261° |
| 2026-05-03 21:12 | 51.71014 | 1.04180 | 19575 ft | 319 kts | 261° |
| 2026-05-03 21:12 | 51.70771 | 1.00628 | 19134 ft | 318 kts | 261° |
| 2026-05-03 21:13 | 51.70529 | 0.97101 | 18714 ft | 316 kts | 261° |
| 2026-05-03 21:13 | 51.70286 | 0.93580 | 18287 ft | 315 kts | 261° |
| 2026-05-03 21:13 | 51.70044 | 0.90076 | 17838 ft | 313 kts | 261° |
| 2026-05-03 21:13 | 51.69801 | 0.86586 | 17395 ft | 311 kts | 261° |
| 2026-05-03 21:14 | 51.69559 | 0.83123 | 16962 ft | 309 kts | 261° |
| 2026-05-03 21:14 | 51.69318 | 0.79687 | 16539 ft | 307 kts | 261° |
| 2026-05-03 21:14 | 51.69078 | 0.76279 | 16116 ft | 305 kts | 261° |
| 2026-05-03 21:14 | 51.68837 | 0.72885 | 15697 ft | 303 kts | 261° |
| 2026-05-03 21:15 | 51.68601 | 0.69554 | 15281 ft | 302 kts | 261° |
| 2026-05-03 21:15 | 51.68362 | 0.66210 | 14901 ft | 300 kts | 261° |
| 2026-05-03 21:15 | 51.68124 | 0.62882 | 14487 ft | 298 kts | 261° |
| 2026-05-03 21:15 | 51.67885 | 0.59566 | 14095 ft | 296 kts | 261° |
| 2026-05-03 21:16 | 51.67649 | 0.56288 | 13703 ft | 295 kts | 261° |
| 2026-05-03 21:16 | 51.67412 | 0.53017 | 13287 ft | 293 kts | 261° |
| 2026-05-03 21:16 | 51.67175 | 0.49760 | 12849 ft | 292 kts | 261° |
| 2026-05-03 21:16 | 51.66937 | 0.46516 | 12414 ft | 290 kts | 262° |
| 2026-05-03 21:17 | 51.66701 | 0.43293 | 11994 ft | 289 kts | 262° |
| 2026-05-03 21:17 | 51.66544 | 0.41161 | 11727 ft | 288 kts | 262° |
| 2026-05-03 21:17 | 51.66228 | 0.36879 | 11165 ft | 287 kts | 262° |
| 2026-05-03 21:17 | 51.65992 | 0.33704 | 10771 ft | 285 kts | 262° |
| 2026-05-03 21:18 | 51.65756 | 0.30533 | 10378 ft | 284 kts | 262° |
| 2026-05-03 21:18 | 51.65520 | 0.27379 | 9986 ft | 283 kts | 262° |
| 2026-05-03 21:18 | 51.65285 | 0.24241 | 9578 ft | 282 kts | 262° |
| 2026-05-03 21:18 | 51.65050 | 0.21121 | 9158 ft | 280 kts | 262° |
| 2026-05-03 21:19 | 51.64818 | 0.18040 | 8922 ft | 272 kts | 262° |
| 2026-05-03 21:19 | 51.64625 | 0.15088 | 8810 ft | 260 kts | 266° |
| 2026-05-03 21:19 | 51.64686 | 0.12245 | 8623 ft | 252 kts | 272° |
| 2026-05-03 21:19 | 51.64785 | 0.09478 | 8489 ft | 241 kts | 271° |
| 2026-05-03 21:20 | 51.64873 | 0.06827 | 8264 ft | 236 kts | 271° |
| 2026-05-03 21:20 | 51.64957 | 0.04143 | 7772 ft | 243 kts | 271° |
| 2026-05-03 21:20 | 51.65041 | 0.01447 | 7427 ft | 244 kts | 271° |
| 2026-05-03 21:20 | 51.65126 | -0.01303 | 7117 ft | 242 kts | 271° |
| 2026-05-03 21:21 | 51.65208 | -0.03951 | 6988 ft | 240 kts | 271° |
| 2026-05-03 21:21 | 51.65291 | -0.06682 | 6936 ft | 244 kts | 271° |
| 2026-05-03 21:21 | 51.65374 | -0.09392 | 6934 ft | 242 kts | 271° |
| 2026-05-03 21:21 | 51.65457 | -0.12102 | 6933 ft | 242 kts | 271° |
| 2026-05-03 21:22 | 51.65538 | -0.14813 | 6937 ft | 242 kts | 271° |
| 2026-05-03 21:22 | 51.65286 | -0.17437 | 6814 ft | 238 kts | 244° |
| 2026-05-03 21:22 | 51.64267 | -0.19495 | 6491 ft | 237 kts | 214° |
| 2026-05-03 21:22 | 51.62754 | -0.20480 | 6212 ft | 233 kts | 194° |
| 2026-05-03 21:23 | 51.61168 | -0.21134 | 6108 ft | 238 kts | 194° |
| 2026-05-03 21:23 | 51.59570 | -0.21804 | 6028 ft | 235 kts | 193° |
| 2026-05-03 21:23 | 51.57961 | -0.21822 | 5904 ft | 234 kts | 164° |
| 2026-05-03 21:23 | 51.56568 | -0.20514 | 5574 ft | 235 kts | 134° |
| 2026-05-03 21:24 | 51.55566 | -0.18425 | 5242 ft | 236 kts | 123° |
| 2026-05-03 21:24 | 51.54708 | -0.16185 | 4972 ft | 234 kts | 122° |
| 2026-05-03 21:24 | 51.53880 | -0.14036 | 4902 ft | 224 kts | 123° |
| 2026-05-03 21:24 | 51.52907 | -0.12208 | 4775 ft | 210 kts | 151° |
| 2026-05-03 21:25 | 51.51550 | -0.11828 | 4670 ft | 195 kts | 196° |
| 2026-05-03 21:25 | 51.50398 | -0.12874 | 4426 ft | 191 kts | 220° |
| 2026-05-03 21:25 | 51.49429 | -0.14370 | 4087 ft | 196 kts | 226° |
| 2026-05-03 21:25 | 51.48790 | -0.16229 | 3984 ft | 194 kts | 263° |
| 2026-05-03 21:26 | 51.49014 | -0.18379 | 3996 ft | 199 kts | 300° |
| 2026-05-03 21:26 | 51.50004 | -0.19879 | 4006 ft | 199 kts | 333° |
| 2026-05-03 21:26 | 51.51093 | -0.21217 | 3956 ft | 197 kts | 308° |
| 2026-05-03 21:26 | 51.51683 | -0.23158 | 3724 ft | 195 kts | 276° |
| 2026-05-03 21:27 | 51.51463 | -0.25271 | 3397 ft | 196 kts | 241° |
| 2026-05-03 21:27 | 51.50689 | -0.26967 | 2475 ft | 223 kts | 226° |
| 2026-05-03 21:27 | 51.49686 | -0.28734 | 2035 ft | 202 kts | 237° |
| 2026-05-03 21:27 | 51.49014 | -0.30536 | 1717 ft | 185 kts | 235° |
| 2026-05-03 21:28 | 51.48303 | -0.32203 | 1493 ft | 165 kts | 245° |
| 2026-05-03 21:28 | 51.48003 | -0.33840 | 1350 ft | 145 kts | 261° |
| 2026-05-03 21:28 | 51.47901 | -0.35381 | 1082 ft | 136 kts | 264° |
| 2026-05-03 21:28 | 51.47826 | -0.36850 | 856 ft | 125 kts | 266° |
| 2026-05-03 21:29 | 51.47809 | -0.38283 | 796 ft | 130 kts | 269° |
| 2026-05-03 21:29 | 51.47789 | -0.39738 | 589 ft | 129 kts | 268° |
| 2026-05-03 21:29 | 51.47791 | -0.41157 | 409 ft | 126 kts | 267° |
| 2026-05-03 21:29 | 51.47777 | -0.42571 | 251 ft | 126 kts | 268° |
| 2026-05-03 21:30 | 51.47769 | -0.43983 | 95 ft | 126 kts | 268° |
| 2026-05-03 21:30 | 51.47756 | -0.45139 | 92 ft | 65 kts | 269° |
| 2026-05-03 21:30 | 51.47759 | -0.45410 | 89 ft | 0 kts | 272° |
| 2026-05-03 21:30 | 51.47760 | -0.45434 | 89 ft | 19 kts | 272° |
| 2026-05-03 21:31 | 51.47758 | -0.45733 | 85 ft | 30 kts | 264° |
| 2026-05-03 21:31 | 51.47667 | -0.45949 | 89 ft | 6 kts | 219° |
| 2026-05-03 21:31 | 51.47650 | -0.45972 | 88 ft | 0 kts | 221° |
| 2026-05-03 21:32 | 51.47626 | -0.46005 | 89 ft | 12 kts | 221° |
| 2026-05-03 21:32 | 51.47582 | -0.46066 | 90 ft | 18 kts | 221° |
| 2026-05-03 21:33 | 51.47549 | -0.46088 | 86 ft | 3 kts | 176° |
| 2026-05-03 21:33 | 51.47519 | -0.46049 | 87 ft | 8 kts | 109° |
| 2026-05-03 21:33 | 51.47517 | -0.45936 | 86 ft | 12 kts | 89° |
| 2026-05-03 21:33 | 51.47516 | -0.45771 | 86 ft | 17 kts | 94° |
| 2026-05-03 21:34 | 51.47508 | -0.45558 | 90 ft | 21 kts | 90° |
| 2026-05-03 21:34 | 51.47508 | -0.45308 | 89 ft | 24 kts | 89° |
| 2026-05-03 21:34 | 51.47508 | -0.45026 | 88 ft | 27 kts | 90° |
| 2026-05-03 21:34 | 51.47507 | -0.44724 | 88 ft | 25 kts | 86° |
| 2026-05-03 21:35 | 51.47460 | -0.44565 | 89 ft | 15 kts | 173° |
| 2026-05-03 21:35 | 51.47348 | -0.44561 | 88 ft | 17 kts | 179° |
| 2026-05-03 21:35 | 51.47221 | -0.44561 | 87 ft | 19 kts | 179° |
| 2026-05-03 21:35 | 51.47079 | -0.44560 | 87 ft | 21 kts | 180° |
| 2026-05-03 21:36 | 51.47002 | -0.44564 | 88 ft | 4 kts | 202° |
| 2026-05-03 21:36 | 51.46992 | -0.44608 | 90 ft | 5 kts | 283° |
| 2026-05-03 21:36 | 51.46997 | -0.44659 | 87 ft | 0 kts | 272° |
| 2026-05-03 21:36 | 51.46997 | -0.44671 | 88 ft | 1 kts | 266° |
| 2026-05-03 21:37 | 51.46996 | -0.44683 | 87 ft | 0 kts | 267° |